Time;durP1;ratioP1;P1;durP2;ratioP2;P2;SDS_P1;SDS_P2;PMS_P1;PMS_P2;Temp;Humidity;BMP_temperature;BMP_pressure;BME280_temperature;BME280_humidity;BME280_pressure;Samples;Min_cycle;Max_cycle;Signal;HPM_P1;HPM_P2
2023/05/16 00:01:15;;;;;;;20.90;12.13;;;;;;;12.07;70.36;150323.69;5062969;28;20056;-63
2023/05/16 00:03:42;;;;;;;21.00;12.77;;;;;;;12.06;69.90;150321.16;5047768;28;20033;-64
2023/05/16 00:06:08;;;;;;;21.58;11.05;;;;;;;12.06;70.32;150322.44;5065249;28;20321;-63
2023/05/16 00:08:34;;;;;;;20.70;11.77;;;;;;;12.09;70.12;150330.13;5065379;28;20041;-64
2023/05/16 00:11:00;;;;;;;24.10;10.95;;;;;;;11.95;70.68;150292.91;5047198;28;20053;-63
2023/05/16 00:13:26;;;;;;;17.77;10.45;;;;;;;11.92;71.14;150287.72;5065295;28;20064;-63
2023/05/16 00:15:54;;;;;;;24.15;10.35;;;;;;;11.82;71.59;150262.03;5065286;28;20024;-64
2023/05/16 00:18:21;;;;;;;21.13;10.43;;;;;;;11.91;71.30;150283.88;5045318;28;20294;-64
2023/05/16 00:20:48;;;;;;;20.13;10.20;;;;;;;11.97;70.99;150298.03;5045241;28;20021;-64
2023/05/16 00:23:14;;;;;;;18.67;11.15;;;;;;;11.95;70.63;150294.19;5056161;28;20116;-64
2023/05/16 00:25:39;;;;;;;17.88;10.13;;;;;;;11.88;71.64;150277.44;5065357;28;20049;-64
2023/05/16 00:28:06;;;;;;;18.15;9.43;;;;;;;11.80;71.25;150256.94;5065389;28;20079;-65
2023/05/16 00:30:31;;;;;;;17.35;9.48;;;;;;;11.78;71.36;150251.78;5065208;28;20194;-65
2023/05/16 00:32:57;;;;;;;17.90;9.10;;;;;;;11.79;71.19;150254.34;5064712;28;20084;-63
2023/05/16 00:35:23;;;;;;;16.80;8.80;;;;;;;11.74;71.90;150241.50;5052648;28;20053;-64
2023/05/16 00:37:49;;;;;;;16.65;8.88;;;;;;;11.78;71.35;150250.50;5045252;28;20025;-63
2023/05/16 00:40:15;;;;;;;24.35;12.35;;;;;;;11.09;74.85;150079.84;5044374;28;20056;-63
2023/05/16 00:42:41;;;;;;;19.70;9.50;;;;;;;11.32;70.87;150137.56;5064818;28;20037;-63
2023/05/16 00:45:07;;;;;;;17.80;10.15;;;;;;;11.58;71.18;150201.72;5064665;28;20033;-64
2023/05/16 00:47:34;;;;;;;21.20;10.75;;;;;;;11.48;72.21;150176.06;5064921;28;20029;-64
2023/05/16 00:50:00;;;;;;;20.00;10.60;;;;;;;11.60;72.00;150206.88;5027434;28;20390;-63
2023/05/16 00:52:25;;;;;;;21.67;10.10;;;;;;;11.51;71.57;150183.75;5055198;28;20025;-64
2023/05/16 00:54:51;;;;;;;16.10;9.40;;;;;;;11.69;69.57;150229.97;5064421;28;20091;-64
2023/05/16 00:57:17;;;;;;;18.60;9.90;;;;;;;11.72;70.85;150236.38;5064377;28;20309;-64
2023/05/16 00:59:45;;;;;;;21.67;14.50;;;;;;;11.48;65.53;150177.31;5062731;28;20031;-63
2023/05/16 01:02:11;;;;;;;23.30;14.82;;;;;;;11.42;65.28;150161.94;5043105;28;20072;-63
2023/05/16 01:04:37;;;;;;;19.67;14.48;;;;;;;11.58;65.13;150201.72;5030147;28;20044;-64
2023/05/16 01:07:04;;;;;;;24.23;14.73;;;;;;;11.79;66.41;150253.09;5063948;28;20289;-63
2023/05/16 01:09:30;;;;;;;25.40;13.40;;;;;;;11.49;65.65;150178.63;5064308;28;20027;-63
2023/05/16 01:12:27;;;;;;;21.40;13.18;;;;;;;11.60;65.03;150206.88;5046028;28;20099;-63
2023/05/16 01:15:12;;;;;;;19.02;13.40;;;;;;;11.62;65.22;150210.72;5063905;28;20032;-63
2023/05/16 01:18:05;;;;;;;21.98;11.52;;;;;;;11.50;65.51;150182.50;5063392;28;20029;-65
2023/05/16 01:20:59;;;;;;;25.15;12.10;;;;;;;11.69;65.86;150228.69;5045412;28;20230;-64
2023/05/16 01:23:52;;;;;;;22.88;13.25;;;;;;;11.65;66.83;150218.41;5064039;28;20025;-65
2023/05/16 01:26:24;;;;;;;21.73;12.52;;;;;;;11.48;67.88;150177.31;5052796;28;20032;-63
2023/05/16 01:28:51;;;;;;;19.08;12.95;;;;;;;11.63;67.42;150214.56;5063878;28;20195;-63
2023/05/16 01:31:17;;;;;;;24.77;12.63;;;;;;;11.63;67.14;150213.25;5063422;28;20375;-64
2023/05/16 01:33:44;;;;;;;21.20;11.43;;;;;;;11.67;67.20;150223.53;5043957;28;20105;-64
2023/05/16 01:36:16;;;;;;;20.60;10.27;;;;;;;11.64;66.16;150217.09;5038598;28;20037;-64
2023/05/16 01:38:44;;;;;;;;;;;;;;;11.53;66.44;150190.19;5056154;28;20033;-65
2023/05/16 01:41:37;;;;;;;25.35;10.85;;;;;;;11.48;66.34;150176.06;5073424;28;20208;-64
2023/05/16 01:44:10;;;;;;;20.70;9.95;;;;;;;11.16;67.06;150097.78;5063407;28;20060;-65
2023/05/16 01:46:39;;;;;;;18.05;10.45;;;;;;;11.19;67.49;150105.47;5062573;28;20037;-64
2023/05/16 01:49:16;;;;;;;21.08;10.68;;;;;;;11.25;67.36;150118.31;5063172;28;20521;-66
2023/05/16 01:51:47;;;;;;;13.98;9.52;;;;;;;11.19;67.47;150104.22;5054272;28;20305;-64
2023/05/16 01:54:18;;;;;;;19.13;10.43;;;;;;;11.06;67.30;150072.13;5028878;28;20033;-64
2023/05/16 01:56:52;;;;;;;19.77;10.57;;;;;;;10.99;67.80;150054.19;5063051;28;20043;-63
2023/05/16 01:59:20;;;;;;;20.00;9.90;;;;;;;11.09;67.38;150078.50;5062691;28;20048;-65
2023/05/16 02:01:46;;;;;;;18.63;10.48;;;;;;;11.00;68.18;150056.72;5063059;28;20029;-65
2023/05/16 02:04:14;;;;;;;16.27;9.90;;;;;;;10.93;67.75;150038.75;5045061;28;20017;-64
2023/05/16 02:06:42;;;;;;;18.83;9.05;;;;;;;11.00;67.76;150058.03;5062633;28;20115;-64
2023/05/16 02:09:08;;;;;;;12.65;8.68;;;;;;;11.07;67.29;150073.41;5062055;28;20165;-64
2023/05/16 02:11:34;;;;;;;14.40;8.27;;;;;;;11.37;66.47;150150.41;5063419;28;20316;-63
2023/05/16 02:13:59;;;;;;;13.20;8.07;;;;;;;11.38;66.83;150151.66;5062800;28;20319;-63
2023/05/16 02:16:25;;;;;;;16.75;8.52;;;;;;;11.45;65.35;150169.63;5062803;28;20340;-63
2023/05/16 02:18:50;;;;;;;13.48;8.40;;;;;;;11.51;66.10;150185.03;5062973;28;20033;-63
2023/05/16 02:21:36;;;;;;;14.95;8.20;;;;;;;11.53;66.09;150188.91;5061526;28;20029;-63
2023/05/16 02:24:02;;;;;;;14.52;8.30;;;;;;;11.73;65.95;150238.97;5061335;28;20025;-64
2023/05/16 02:26:27;;;;;;;20.85;9.50;;;;;;;11.72;66.10;150236.38;5055592;28;20044;-64
2023/05/16 02:28:53;;;;;;;14.05;8.23;;;;;;;11.84;65.97;150265.91;5061587;28;20040;-62
2023/05/16 02:31:29;;;;;;;14.02;8.18;;;;;;;11.93;66.15;150289.03;5043818;28;20028;-64
2023/05/16 02:33:56;;;;;;;12.55;7.72;;;;;;;12.12;65.68;150335.28;5061555;28;20128;-64
2023/05/16 02:36:21;;;;;;;13.57;7.25;;;;;;;12.24;65.62;150367.38;5061402;28;20092;-64
2023/05/16 02:38:47;;;;;;;13.13;7.53;;;;;;;12.36;63.84;150396.91;5061210;28;20038;-64
2023/05/16 02:41:12;;;;;;;13.80;7.63;;;;;;;12.47;64.21;150422.59;5072701;28;20341;-64
2023/05/16 02:43:38;;;;;;;13.45;7.57;;;;;;;12.57;62.91;150449.56;5044739;28;20044;-64
2023/05/16 02:46:04;;;;;;;11.68;7.03;;;;;;;12.59;64.53;150453.44;5062304;28;20028;-65
2023/05/16 02:48:30;;;;;;;11.95;6.10;;;;;;;12.67;63.20;150474.00;5063203;28;20318;-64
2023/05/16 02:50:56;;;;;;;12.00;6.55;;;;;;;12.72;63.65;150485.53;5044226;28;20033;-65
2023/05/16 02:53:21;;;;;;;9.77;5.55;;;;;;;12.78;61.96;150500.94;5062355;28;20071;-64
2023/05/16 02:55:47;;;;;;;13.00;6.65;;;;;;;12.84;61.29;150516.38;5062191;28;20302;-65
2023/05/16 02:58:12;;;;;;;9.45;5.50;;;;;;;12.90;62.23;150530.50;5062182;28;20088;-64
2023/05/16 03:00:39;;;;;;;12.88;6.05;;;;;;;13.03;62.61;150563.91;5061706;28;20037;-64
2023/05/16 03:03:04;;;;;;;9.18;5.15;;;;;;;13.13;61.79;150589.59;5061815;28;20028;-63
2023/05/16 03:05:30;;;;;;;9.20;5.40;;;;;;;13.21;61.85;150607.56;5061899;28;20116;-62
2023/05/16 03:07:56;;;;;;;10.27;5.32;;;;;;;13.21;61.05;150607.56;5062323;28;20078;-62
2023/05/16 03:10:22;;;;;;;12.35;6.10;;;;;;;13.29;62.51;150628.13;5062448;28;20040;-64
2023/05/16 03:12:47;;;;;;;8.63;5.32;;;;;;;13.34;62.11;150639.69;5062831;28;20257;-63
2023/05/16 03:15:13;;;;;;;9.27;5.75;;;;;;;13.40;62.77;150656.47;5061927;28;20025;-64
2023/05/16 03:17:38;;;;;;;10.43;5.43;;;;;;;13.48;61.87;150675.72;5060363;28;20047;-64
2023/05/16 03:20:08;;;;;;;10.40;5.50;;;;;;;13.59;62.43;150702.72;5061242;28;20021;-61
2023/05/16 03:22:34;;;;;;;10.98;5.40;;;;;;;13.68;61.36;150724.59;5060969;28;20021;-63
2023/05/16 03:25:00;;;;;;;7.82;5.53;;;;;;;13.75;61.62;150743.91;5061656;28;20025;-64
2023/05/16 03:27:26;;;;;;;11.38;5.95;;;;;;;13.76;60.86;150745.16;5061947;28;20092;-62
2023/05/16 03:29:52;;;;;;;9.02;5.00;;;;;;;13.81;59.69;150759.31;5062185;28;20052;-63
2023/05/16 03:32:17;;;;;;;9.50;5.20;;;;;;;13.87;60.37;150772.19;5054331;28;20030;-63
2023/05/16 03:34:43;;;;;;;13.23;5.10;;;;;;;14.00;60.75;150804.31;5045387;28;20029;-63
2023/05/16 03:37:09;;;;;;;9.48;5.40;;;;;;;14.05;59.88;150818.47;5065886;28;20029;-64
2023/05/16 03:39:35;;;;;;;8.48;5.70;;;;;;;14.03;60.56;150813.28;5070504;28;20055;-62
2023/05/16 03:42:01;;;;;;;11.52;5.25;;;;;;;14.13;61.06;150837.72;5072327;28;20024;-63
2023/05/16 03:44:26;;;;;;;5.20;4.25;;;;;;;14.15;57.96;150842.84;5065757;28;20086;-64
2023/05/16 03:46:53;;;;;;;10.23;5.10;;;;;;;14.25;58.66;150868.59;5065594;28;20021;-63
2023/05/16 03:49:24;;;;;;;11.70;5.60;;;;;;;14.33;59.44;150889.16;5065816;28;20032;-63
2023/05/16 03:51:50;;;;;;;19.05;5.78;;;;;;;14.26;58.38;150869.88;5049263;28;20024;-64
2023/05/16 03:54:15;;;;;;;8.25;5.35;;;;;;;14.41;56.41;150907.16;5065702;28;20025;-65
2023/05/16 03:56:41;;;;;;;11.73;5.63;;;;;;;14.57;55.32;150947.06;5065529;28;20033;-65
2023/05/16 03:59:06;;;;;;;9.77;5.10;;;;;;;14.69;56.94;150977.94;5065412;28;20029;-65
2023/05/16 04:01:32;;;;;;;10.00;4.85;;;;;;;14.90;55.85;151029.44;5047712;28;20028;-63
2023/05/16 04:03:58;;;;;;;10.65;5.28;;;;;;;15.05;53.42;151066.72;5064411;28;20032;-65
2023/05/16 04:06:23;;;;;;;7.38;4.65;;;;;;;15.26;54.73;151120.75;5065176;28;20325;-64
2023/05/16 04:08:49;;;;;;;10.98;5.03;;;;;;;15.22;54.93;151110.50;5065649;28;20143;-63
2023/05/16 04:11:14;;;;;;;14.30;5.90;;;;;;;15.18;55.02;151100.22;5065533;28;20025;-63
2023/05/16 04:13:41;;;;;;;14.27;6.57;;;;;;;15.29;55.81;151127.22;5065218;28;20044;-63
2023/05/16 04:16:07;;;;;;;11.65;5.80;;;;;;;15.20;53.97;151105.34;5063118;28;20028;-62
2023/05/16 04:18:32;;;;;;;13.50;6.03;;;;;;;15.08;54.54;151075.75;5043059;28;20037;-63
2023/05/16 04:20:58;;;;;;;12.50;6.18;;;;;;;15.29;54.12;151127.22;5057833;28;20327;-63
2023/05/16 04:23:24;;;;;;;16.33;6.22;;;;;;;15.40;54.81;151154.25;5065116;28;20025;-63
2023/05/16 04:25:49;;;;;;;13.13;5.30;;;;;;;15.28;52.00;151125.94;5047301;28;20059;-62
2023/05/16 04:28:15;;;;;;;10.13;4.95;;;;;;;15.28;51.31;151125.94;5065019;28;20029;-63
2023/05/16 04:30:40;;;;;;;7.93;4.68;;;;;;;15.42;50.43;151159.38;5063577;28;20029;-63
2023/05/16 04:33:06;;;;;;;7.20;4.15;;;;;;;15.36;49.75;151145.22;5064774;28;20025;-62
2023/05/16 04:35:32;;;;;;;11.00;5.10;;;;;;;15.44;50.43;151164.56;5055725;28;20029;-62
2023/05/16 04:37:58;;;;;;;7.90;4.07;;;;;;;15.61;50.39;151207.03;5049126;28;20104;-61
2023/05/16 04:40:24;;;;;;;9.82;4.43;;;;;;;15.70;50.07;151230.19;5075637;28;20032;-62
2023/05/16 04:42:50;;;;;;;8.57;4.30;;;;;;;15.66;49.65;151219.88;5063178;28;20202;-62
2023/05/16 04:45:15;;;;;;;12.13;4.97;;;;;;;15.85;49.33;151268.88;5063787;28;20033;-62
2023/05/16 04:47:41;;;;;;;8.73;4.45;;;;;;;16.05;49.00;151317.81;5063708;28;20082;-61
2023/05/16 04:50:07;;;;;;;11.40;4.63;;;;;;;16.05;49.49;151319.06;5064356;28;20225;-62
2023/05/16 04:52:33;;;;;;;10.02;4.22;;;;;;;16.05;48.53;151319.06;5063972;28;20052;-63
2023/05/16 04:54:59;;;;;;;9.25;4.15;;;;;;;16.22;48.62;151361.56;5064424;28;20194;-63
2023/05/16 04:57:26;;;;;;;8.18;3.80;;;;;;;16.37;47.72;151397.63;5064429;28;20021;-62
2023/05/16 04:59:52;;;;;;;9.68;3.40;;;;;;;16.33;46.75;151387.31;5064324;28;20352;-64
2023/05/16 05:02:18;;;;;;;7.63;3.88;;;;;;;16.60;46.77;151455.56;5063964;28;20024;-68
2023/05/16 05:04:43;;;;;;;7.57;3.63;;;;;;;16.62;46.59;151459.50;5063597;28;20033;-65
2023/05/16 05:07:09;;;;;;;7.10;3.60;;;;;;;16.70;45.86;151480.06;5064062;28;20041;-69
2023/05/16 05:09:35;;;;;;;5.53;3.33;;;;;;;16.95;47.31;151541.97;5063957;28;20044;-65
2023/05/16 05:12:00;;;;;;;9.48;3.40;;;;;;;17.14;47.89;151589.66;5068445;28;20313;-64
2023/05/16 05:14:26;;;;;;;8.02;3.45;;;;;;;17.40;46.42;151655.34;5075552;28;20021;-64
2023/05/16 05:16:51;;;;;;;4.47;3.20;;;;;;;17.87;44.70;151772.66;5078123;28;20117;-63
2023/05/16 05:19:17;;;;;;;6.70;3.20;;;;;;;18.09;45.17;151828.19;5063681;28;20071;-65
2023/05/16 05:21:42;;;;;;;6.60;3.03;;;;;;;17.66;43.54;151719.81;5063812;28;20387;-64
2023/05/16 05:24:08;;;;;;;5.45;3.15;;;;;;;17.69;42.96;151728.84;5063688;28;20040;-65
2023/05/16 05:26:34;;;;;;;4.63;2.92;;;;;;;17.96;43.71;151795.94;5063709;28;20216;-65
2023/05/16 05:28:59;;;;;;;6.38;2.95;;;;;;;17.69;41.86;151727.56;5063523;28;20037;-65
2023/05/16 05:31:25;;;;;;;3.95;2.70;;;;;;;17.80;42.09;151755.94;5046058;28;20202;-64
2023/05/16 05:33:50;;;;;;;5.88;2.72;;;;;;;17.80;41.06;151754.63;5063356;28;20049;-64
2023/05/16 05:36:16;;;;;;;8.30;2.75;;;;;;;17.59;41.17;151704.34;5049068;28;20021;-64
2023/05/16 05:38:41;;;;;;;3.95;2.25;;;;;;;17.85;41.02;151767.53;5053482;28;20329;-65
2023/05/16 05:41:07;;;;;;;7.82;2.30;;;;;;;17.98;42.03;151799.81;5075264;28;20088;-64
2023/05/16 05:43:33;;;;;;;4.65;2.10;;;;;;;17.54;39.84;151691.47;5063343;28;20320;-63
2023/05/16 05:45:59;;;;;;;7.25;2.22;;;;;;;17.89;40.90;151779.13;5055230;28;20036;-64
2023/05/16 05:48:24;;;;;;;5.93;2.55;;;;;;;17.37;39.43;151648.94;5063308;28;20059;-64
2023/05/16 05:50:51;;;;;;;2.50;1.90;;;;;;;17.82;40.15;151759.81;5063062;28;20055;-63
2023/05/16 05:53:17;;;;;;;4.45;1.70;;;;;;;17.77;39.65;151748.16;5062059;28;20348;-64
2023/05/16 05:55:43;;;;;;;5.35;2.25;;;;;;;17.66;39.68;151721.13;5063413;28;20024;-63
2023/05/16 05:58:08;;;;;;;7.30;2.47;;;;;;;17.87;38.97;151773.97;5062602;28;20221;-64
2023/05/16 06:00:34;;;;;;;4.30;1.95;;;;;;;17.93;39.65;151788.22;5062766;28;20025;-64
2023/05/16 06:02:59;;;;;;;4.53;2.03;;;;;;;17.61;39.06;151708.22;5062607;28;20025;-64
2023/05/16 06:05:25;;;;;;;6.43;2.10;;;;;;;18.03;39.21;151814.00;5045236;28;20049;-64
2023/05/16 06:07:50;;;;;;;6.55;1.92;;;;;;;17.81;38.58;151757.22;5063014;28;20171;-65
2023/05/16 06:10:16;;;;;;;4.10;1.70;;;;;;;17.84;39.51;151766.25;5062982;28;20036;-64
2023/05/16 06:12:42;;;;;;;6.47;1.92;;;;;;;17.68;38.60;151726.25;5045224;28;20052;-65
2023/05/16 06:15:08;;;;;;;2.55;1.60;;;;;;;17.75;38.12;151744.31;5062591;28;20048;-65
2023/05/16 06:17:34;;;;;;;3.08;1.85;;;;;;;17.84;38.03;151766.25;5061784;28;20171;-63
2023/05/16 06:19:59;;;;;;;4.95;1.88;;;;;;;17.86;37.61;151771.41;5062745;28;20040;-63
2023/05/16 06:22:25;;;;;;;6.68;1.65;;;;;;;17.84;37.14;151766.25;5062946;28;20025;-64
2023/05/16 06:24:50;;;;;;;2.47;1.73;;;;;;;17.96;37.16;151794.63;5062777;28;20095;-64
2023/05/16 06:27:16;;;;;;;3.28;1.65;;;;;;;17.88;37.26;151776.53;5062625;28;20021;-63
2023/05/16 06:29:41;;;;;;;3.25;1.92;;;;;;;17.97;37.55;151797.22;5044630;28;20051;-64
2023/05/16 06:32:07;;;;;;;5.55;1.73;;;;;;;17.86;37.61;151770.13;5057922;28;20029;-64
2023/05/16 06:34:33;;;;;;;8.18;2.20;;;;;;;18.10;38.15;151832.03;5042650;28;20072;-63
2023/05/16 06:36:58;;;;;;;10.50;2.10;;;;;;;18.08;38.63;151826.88;5061092;28;20190;-64
2023/05/16 06:39:24;;;;;;;6.05;1.75;;;;;;;18.00;38.49;151806.28;5064768;28;20017;-64
2023/05/16 06:41:50;;;;;;;6.53;2.15;;;;;;;18.09;38.76;151828.19;5069559;28;20181;-64
2023/05/16 06:44:16;;;;;;;2.75;1.50;;;;;;;18.37;38.91;151899.13;5061976;28;20032;-64
2023/05/16 06:46:42;;;;;;;5.03;2.00;;;;;;;18.54;38.11;151940.38;5060178;28;20213;-65
2023/05/16 06:49:07;;;;;;;4.43;1.90;;;;;;;18.41;39.36;151909.44;5042307;28;20025;-65
2023/05/16 06:51:33;;;;;;;5.30;1.75;;;;;;;18.58;37.91;151950.69;5058405;28;20029;-65
2023/05/16 06:53:58;;;;;;;3.47;1.92;;;;;;;18.61;37.99;151959.75;5062307;28;20040;-63
2023/05/16 06:56:24;;;;;;;4.15;1.83;;;;;;;18.60;37.46;151957.16;5062163;28;20025;-63
2023/05/16 06:58:50;;;;;;;4.15;1.60;;;;;;;18.85;36.58;152017.78;5044222;28;20024;-65
2023/05/16 07:01:16;;;;;;;5.78;1.60;;;;;;;18.67;36.37;151972.63;5062129;28;20029;-65
2023/05/16 07:03:41;;;;;;;5.63;1.50;;;;;;;18.51;36.03;151933.91;5062096;28;20052;-63
2023/05/16 07:06:07;;;;;;;3.83;1.52;;;;;;;18.71;36.80;151984.25;5062142;28;20286;-64
2023/05/16 07:08:34;;;;;;;4.15;1.50;;;;;;;18.60;36.32;151957.16;5062002;28;20053;-63
2023/05/16 07:11:00;;;;;;;3.10;1.50;;;;;;;18.55;35.63;151942.97;5061579;28;20032;-64
2023/05/16 07:13:26;;;;;;;4.65;1.50;;;;;;;18.56;34.73;151946.81;5062158;28;20265;-65
2023/05/16 07:15:52;;;;;;;2.70;1.42;;;;;;;18.93;36.45;152038.50;5061349;28;20071;-64
2023/05/16 07:18:17;;;;;;;3.03;1.60;;;;;;;18.92;35.32;152035.91;5060940;28;20067;-65
2023/05/16 07:20:43;;;;;;;3.53;1.77;;;;;;;18.97;35.44;152048.81;5060333;28;20036;-64
2023/05/16 07:23:09;;;;;;;2.45;1.30;;;;;;;18.54;34.42;151940.38;5044104;28;20052;-66
2023/05/16 07:25:35;;;;;;;2.78;1.30;;;;;;;18.63;34.61;151963.59;5061998;28;20021;-65
2023/05/16 07:28:01;;;;;;;4.55;1.70;;;;;;;18.45;34.95;151918.44;5060057;28;20029;-64
2023/05/16 07:30:27;;;;;;;4.22;1.73;;;;;;;18.83;34.25;152013.91;5055926;28;20031;-64
2023/05/16 07:32:52;;;;;;;5.68;1.35;;;;;;;19.01;34.72;152057.81;5059266;28;20088;-65
2023/05/16 07:35:18;;;;;;;3.65;1.60;;;;;;;18.91;34.99;152034.63;5061260;28;20286;-65
2023/05/16 07:37:44;;;;;;;6.93;1.70;;;;;;;18.80;34.73;152007.47;5060942;28;20205;-65
2023/05/16 07:40:10;;;;;;;4.00;1.90;;;;;;;19.17;35.72;152097.81;5044027;28;20397;-63
2023/05/16 07:42:36;;;;;;;3.47;1.55;;;;;;;19.11;33.93;152084.94;5060735;28;20074;-64
2023/05/16 07:45:01;;;;;;;4.00;1.50;;;;;;;18.86;34.29;152021.66;5060615;28;20298;-64
2023/05/16 07:47:29;;;;;;;2.97;1.55;;;;;;;19.13;35.42;152090.09;5060983;28;20040;-64
2023/05/16 07:49:55;;;;;;;4.50;1.40;;;;;;;18.90;34.36;152032.03;5060818;28;20075;-63
2023/05/16 07:52:21;;;;;;;6.70;1.65;;;;;;;19.23;34.77;152113.34;5059236;28;20037;-63
2023/05/16 07:54:46;;;;;;;5.53;1.20;;;;;;;19.27;32.97;152123.66;5061699;28;20044;-64
2023/05/16 07:57:16;;;;;;;2.25;1.40;;;;;;;19.16;33.03;152096.53;5061286;28;20049;-64
2023/05/16 07:59:43;;;;;;;2.67;1.30;;;;;;;19.31;33.15;152135.28;5061275;28;20066;-65
2023/05/16 08:02:09;;;;;;;2.92;1.40;;;;;;;19.45;33.92;152168.81;5061268;28;20524;-65
2023/05/16 08:04:35;;;;;;;3.90;1.60;;;;;;;19.45;33.26;152170.13;5061179;28;20043;-65
2023/05/16 08:07:01;;;;;;;3.72;1.60;;;;;;;19.58;34.79;152201.06;5060356;28;20057;-64
2023/05/16 08:09:26;;;;;;;4.63;1.63;;;;;;;19.11;32.67;152084.94;5061346;28;20092;-65
2023/05/16 08:11:52;;;;;;;4.55;1.25;;;;;;;19.51;34.58;152183.00;5060597;28;20525;-65
2023/05/16 08:14:17;;;;;;;3.08;1.45;;;;;;;19.34;33.35;152141.72;5060664;28;20025;-64
2023/05/16 08:16:43;;;;;;;2.53;1.33;;;;;;;19.24;34.07;152115.88;5060020;28;20104;-64
2023/05/16 08:19:09;;;;;;;3.50;1.77;;;;;;;19.21;33.78;152108.16;5060968;28;20089;-64
2023/05/16 08:21:35;;;;;;;4.13;1.73;;;;;;;19.30;34.25;152131.41;5054520;28;20029;-65
2023/05/16 08:24:00;;;;;;;5.35;1.45;;;;;;;19.29;33.75;152130.06;5063813;28;20344;-65
2023/05/16 08:26:26;;;;;;;6.35;1.75;;;;;;;19.39;34.30;152154.59;5064292;28;20036;-65
2023/05/16 08:28:51;;;;;;;10.55;1.77;;;;;;;19.35;33.37;152143.00;5064670;28;20302;-65
2023/05/16 08:31:17;;;;;;;3.25;1.70;;;;;;;19.53;33.30;152189.47;5064710;28;20029;-64
2023/05/16 08:33:43;;;;;;;4.22;1.65;;;;;;;19.61;34.12;152208.81;5047841;28;20025;-65
2023/05/16 08:36:09;;;;;;;7.15;1.60;;;;;;;19.38;32.85;152152.06;5056627;28;20032;-64
2023/05/16 08:38:35;;;;;;;5.18;1.60;;;;;;;19.49;32.79;152180.41;5064365;28;20029;-65
2023/05/16 08:41:00;;;;;;;2.17;1.40;;;;;;;19.78;33.33;152251.41;5073506;28;20232;-64
2023/05/16 08:43:27;;;;;;;4.50;1.20;;;;;;;19.60;32.40;152206.25;5043505;28;20187;-64
2023/05/16 08:45:52;;;;;;;2.42;1.20;;;;;;;19.82;32.06;152263.13;5062015;28;20037;-65
2023/05/16 08:48:22;;;;;;;3.35;1.13;;;;;;;20.09;31.96;152328.94;5064233;28;20020;-64
2023/05/16 08:50:47;;;;;;;5.55;1.08;;;;;;;20.35;32.45;152396.09;5063932;28;20242;-63
2023/05/16 08:53:16;;;;;;;4.30;1.42;;;;;;;20.03;31.81;152313.47;5063376;28;20029;-65
2023/05/16 08:55:44;;;;;;;3.10;1.27;;;;;;;20.35;31.60;152394.78;5064030;28;20124;-64
2023/05/16 08:58:11;;;;;;;5.15;1.30;;;;;;;20.02;31.45;152312.16;5063885;28;20041;-65
2023/05/16 09:00:37;;;;;;;15.25;1.60;;;;;;;19.99;32.07;152305.72;5063294;28;20021;-65
2023/05/16 09:03:04;;;;;;;3.63;1.67;;;;;;;20.06;32.08;152322.47;5063405;28;20049;-65
2023/05/16 09:05:31;;;;;;;3.83;1.30;;;;;;;20.27;31.29;152375.44;5063980;28;20045;-67
2023/05/16 09:07:56;;;;;;;6.57;1.42;;;;;;;20.26;31.92;152371.56;5046116;28;20040;-65
2023/05/16 09:10:22;;;;;;;3.35;1.45;;;;;;;20.08;30.82;152326.34;5046456;28;20035;-65
2023/05/16 09:12:47;;;;;;;4.65;1.40;;;;;;;19.88;31.15;152276.00;5064057;28;20241;-65
2023/05/16 09:15:13;;;;;;;3.58;1.45;;;;;;;19.93;30.96;152288.94;5063800;28;20033;-66
2023/05/16 09:17:45;;;;;;;4.03;1.40;;;;;;;20.26;30.97;152371.56;5063862;28;20292;-64
2023/05/16 09:20:15;;;;;;;7.90;1.70;;;;;;;19.77;31.57;152250.13;5063901;28;20059;-65
2023/05/16 09:22:54;;;;;;;4.75;1.40;;;;;;;20.30;32.53;152381.91;5046094;28;20041;-66
2023/05/16 09:25:21;;;;;;;3.85;1.80;;;;;;;20.49;31.96;152431.00;5043871;28;20092;-67
2023/05/16 09:27:51;;;;;;;5.50;1.98;;;;;;;20.29;31.41;152379.31;5042719;28;20323;-66
2023/05/16 09:30:22;;;;;;;2.17;1.58;;;;;;;19.97;31.37;152300.53;5063821;28;20408;-66
2023/05/16 09:32:51;;;;;;;5.72;1.83;;;;;;;19.64;31.42;152216.59;5063447;28;20047;-68
2023/05/16 09:35:18;;;;;;;5.28;1.90;;;;;;;20.18;31.43;152353.50;5059161;28;20033;-66
2023/05/16 09:37:49;;;;;;;3.63;1.73;;;;;;;20.39;31.91;152403.84;5043558;28;20318;-66
2023/05/16 09:40:15;;;;;;;6.10;1.80;;;;;;;20.46;31.21;152421.94;5063172;28;20069;-67
2023/05/16 09:42:42;;;;;;;5.82;1.90;;;;;;;20.48;31.94;152428.41;5067438;28;20056;-67
2023/05/16 09:45:12;;;;;;;3.05;1.90;;;;;;;20.59;32.12;152454.22;5054532;28;20048;-67
2023/05/16 09:47:45;;;;;;;4.75;1.40;;;;;;;20.49;31.46;152431.00;5058323;28;20025;-66
2023/05/16 09:50:14;;;;;;;2.30;1.58;;;;;;;20.41;31.15;152410.31;5063029;28;20037;-67
2023/05/16 09:52:42;;;;;;;2.47;1.60;;;;;;;20.15;31.27;152345.75;5063069;28;20071;-66
2023/05/16 09:55:08;;;;;;;2.15;1.30;;;;;;;20.42;31.82;152412.91;5063192;28;20029;-66
2023/05/16 09:57:40;;;;;;;5.75;1.48;;;;;;;20.38;32.06;152402.56;5062607;28;20214;-65
2023/05/16 10:00:09;;;;;;;7.93;1.60;;;;;;;20.34;31.63;152392.25;5041873;28;20025;-65
2023/05/16 10:02:37;;;;;;;6.22;1.60;;;;;;;20.58;31.62;152451.63;5049639;28;20060;-65
2023/05/16 10:05:03;;;;;;;3.20;1.30;;;;;;;20.81;32.39;152511.13;5062616;28;20036;-64
2023/05/16 10:07:33;;;;;;;3.50;1.30;;;;;;;20.62;31.67;152461.97;5045709;28;20098;-65
2023/05/16 10:10:09;;;;;;;3.85;1.50;;;;;;;20.38;30.83;152402.56;5062695;28;20093;-64
2023/05/16 10:12:35;;;;;;;4.18;1.27;;;;;;;20.56;31.65;152447.75;5062318;28;20050;-66
2023/05/16 10:15:03;;;;;;;5.13;1.25;;;;;;;20.65;31.79;152469.69;5062843;28;20084;-66
2023/05/16 10:17:32;;;;;;;1.63;1.10;;;;;;;20.41;30.91;152409.00;5062525;28;20024;-67
2023/05/16 10:20:03;;;;;;;2.45;1.30;;;;;;;20.57;30.99;152450.34;5061793;28;20175;-67
2023/05/16 10:22:37;;;;;;;8.07;1.55;;;;;;;20.75;33.00;152494.31;5061831;28;20088;-65
2023/05/16 10:25:37;;;;;;;1.83;1.10;;;;;;;20.70;31.62;152482.69;5062500;28;20463;-64
2023/05/16 10:28:04;;;;;;;5.10;1.38;;;;;;;20.43;32.23;152415.47;5061590;28;20096;-65
2023/05/16 10:30:32;;;;;;;6.03;1.50;;;;;;;20.62;32.23;152461.97;5061818;28;20043;-65
2023/05/16 10:32:59;;;;;;;6.88;1.40;;;;;;;20.58;32.56;152451.63;5069520;28;20078;-65
2023/05/16 10:35:26;;;;;;;2.33;1.10;;;;;;;20.61;33.35;152459.41;5069239;28;20389;-65
2023/05/16 10:37:52;;;;;;;12.90;1.60;;;;;;;20.55;32.22;152443.88;5070234;28;20344;-65
2023/05/16 10:40:20;;;;;;;5.78;1.33;;;;;;;20.47;32.14;152424.53;5072679;28;20325;-65
2023/05/16 10:43:00;;;;;;;1.85;1.38;;;;;;;19.78;32.65;152251.41;5066214;28;20079;-65
2023/05/16 10:45:26;;;;;;;5.55;1.45;;;;;;;20.43;32.94;152415.47;5061676;28;20028;-65
2023/05/16 10:47:57;;;;;;;4.03;1.17;;;;;;;20.32;32.13;152387.03;5061755;28;20025;-64
2023/05/16 10:50:45;;;;;;;3.22;1.30;;;;;;;20.53;32.09;152441.28;5061111;28;20040;-65
2023/05/16 10:53:34;;;;;;;1.90;1.27;;;;;;;20.42;31.95;152411.59;5077070;28;20333;-65
2023/05/16 10:56:02;;;;;;;2.65;1.40;;;;;;;20.31;31.71;152385.78;5061931;28;20040;-65
2023/05/16 10:58:34;;;;;;;1.20;1.10;;;;;;;20.23;32.10;152363.81;5062159;28;20039;-66
2023/05/16 11:01:20;;;;;;;8.50;1.70;;;;;;;20.20;31.76;152356.09;5062014;28;20363;-65
2023/05/16 11:04:01;;;;;;;3.15;1.20;;;;;;;20.31;32.21;152385.78;5061621;28;20096;-66
2023/05/16 11:06:27;;;;;;;2.55;1.20;;;;;;;20.38;31.84;152402.56;5060787;28;20217;-65
2023/05/16 11:09:05;;;;;;;1.55;1.00;;;;;;;20.34;31.58;152392.25;5066396;28;20060;-65
2023/05/16 11:11:46;;;;;;;2.05;1.10;;;;;;;20.64;32.33;152467.16;5065607;28;20026;-65
2023/05/16 11:14:24;;;;;;;5.35;1.40;;;;;;;20.52;32.35;152438.75;5044588;28;20068;-65
2023/05/16 11:17:06;;;;;;;5.50;1.55;;;;;;;20.39;32.27;152403.84;5061860;28;20368;-66
2023/05/16 11:19:33;;;;;;;3.15;1.40;;;;;;;20.63;32.09;152464.56;5041806;28;20037;-66
2023/05/16 11:22:15;;;;;;;3.45;1.65;;;;;;;20.37;31.76;152399.97;5058654;28;20045;-65
2023/05/16 11:25:01;;;;;;;3.15;1.30;;;;;;;20.16;32.05;152347.03;5061344;28;20096;-66